sensor_id;sensor_type;location;lat;lon;timestamp;P1;durP1;ratioP1;P2;durP2;ratioP2
33690;SDS011;20026;50.058;18.428;2023-08-12T00:00:26;17.33;;;9.15;;
33690;SDS011;20026;50.058;18.428;2023-08-12T00:02:52;18.67;;;9.05;;
33690;SDS011;20026;50.058;18.428;2023-08-12T00:05:18;15.60;;;9.32;;
33690;SDS011;20026;50.058;18.428;2023-08-12T00:07:44;18.45;;;10.88;;
33690;SDS011;20026;50.058;18.428;2023-08-12T00:10:11;12.93;;;9.57;;
33690;SDS011;20026;50.058;18.428;2023-08-12T00:12:38;17.88;;;11.00;;
33690;SDS011;20026;50.058;18.428;2023-08-12T00:15:04;17.90;;;9.52;;
33690;SDS011;20026;50.058;18.428;2023-08-12T00:17:32;13.60;;;9.23;;
33690;SDS011;20026;50.058;18.428;2023-08-12T00:19:59;11.95;;;9.15;;
33690;SDS011;20026;50.058;18.428;2023-08-12T00:22:25;16.23;;;10.80;;
33690;SDS011;20026;50.058;18.428;2023-08-12T00:24:51;18.40;;;11.30;;
33690;SDS011;20026;50.058;18.428;2023-08-12T00:27:17;15.50;;;10.45;;
33690;SDS011;20026;50.058;18.428;2023-08-12T00:29:43;16.17;;;10.98;;
33690;SDS011;20026;50.058;18.428;2023-08-12T00:32:09;17.10;;;11.07;;
33690;SDS011;20026;50.058;18.428;2023-08-12T00:34:35;17.95;;;11.05;;
33690;SDS011;20026;50.058;18.428;2023-08-12T00:37:01;17.73;;;11.57;;
33690;SDS011;20026;50.058;18.428;2023-08-12T00:39:27;16.08;;;12.05;;
33690;SDS011;20026;50.058;18.428;2023-08-12T00:41:53;19.33;;;11.98;;
33690;SDS011;20026;50.058;18.428;2023-08-12T00:44:20;17.98;;;11.48;;
33690;SDS011;20026;50.058;18.428;2023-08-12T00:46:46;16.92;;;11.75;;
33690;SDS011;20026;50.058;18.428;2023-08-12T00:49:12;17.55;;;10.93;;
33690;SDS011;20026;50.058;18.428;2023-08-12T00:51:39;16.67;;;11.25;;
33690;SDS011;20026;50.058;18.428;2023-08-12T00:54:06;18.35;;;11.75;;
33690;SDS011;20026;50.058;18.428;2023-08-12T00:56:34;18.50;;;12.27;;
33690;SDS011;20026;50.058;18.428;2023-08-12T00:59:00;19.77;;;13.73;;
33690;SDS011;20026;50.058;18.428;2023-08-12T01:01:27;19.60;;;13.68;;
33690;SDS011;20026;50.058;18.428;2023-08-12T01:03:53;24.42;;;14.10;;
33690;SDS011;20026;50.058;18.428;2023-08-12T01:06:19;23.88;;;14.73;;
33690;SDS011;20026;50.058;18.428;2023-08-12T01:08:45;17.38;;;13.18;;
33690;SDS011;20026;50.058;18.428;2023-08-12T01:11:12;24.10;;;13.60;;
33690;SDS011;20026;50.058;18.428;2023-08-12T01:16:30;18.73;;;13.93;;
33690;SDS011;20026;50.058;18.428;2023-08-12T01:18:57;22.98;;;13.63;;
33690;SDS011;20026;50.058;18.428;2023-08-12T01:21:24;19.42;;;13.07;;
33690;SDS011;20026;50.058;18.428;2023-08-12T01:23:50;19.70;;;12.95;;
33690;SDS011;20026;50.058;18.428;2023-08-12T01:26:18;19.05;;;13.40;;
33690;SDS011;20026;50.058;18.428;2023-08-12T01:28:44;17.73;;;13.32;;
33690;SDS011;20026;50.058;18.428;2023-08-12T01:34:20;18.20;;;11.07;;
33690;SDS011;20026;50.058;18.428;2023-08-12T01:36:50;25.20;;;14.87;;
33690;SDS011;20026;50.058;18.428;2023-08-12T01:39:20;20.02;;;15.20;;
33690;SDS011;20026;50.058;18.428;2023-08-12T01:41:47;20.02;;;15.60;;
33690;SDS011;20026;50.058;18.428;2023-08-12T01:44:13;26.17;;;17.45;;
33690;SDS011;20026;50.058;18.428;2023-08-12T01:46:39;22.13;;;17.55;;
33690;SDS011;20026;50.058;18.428;2023-08-12T01:49:07;27.98;;;17.58;;
33690;SDS011;20026;50.058;18.428;2023-08-12T01:51:34;24.63;;;16.88;;
33690;SDS011;20026;50.058;18.428;2023-08-12T01:54:00;22.45;;;15.65;;
33690;SDS011;20026;50.058;18.428;2023-08-12T01:56:25;21.83;;;14.65;;
33690;SDS011;20026;50.058;18.428;2023-08-12T01:58:52;24.30;;;14.20;;
33690;SDS011;20026;50.058;18.428;2023-08-12T02:01:18;25.15;;;15.98;;
33690;SDS011;20026;50.058;18.428;2023-08-12T02:03:43;25.42;;;15.90;;
33690;SDS011;20026;50.058;18.428;2023-08-12T02:06:12;22.90;;;15.97;;
33690;SDS011;20026;50.058;18.428;2023-08-12T02:08:38;21.13;;;14.95;;
33690;SDS011;20026;50.058;18.428;2023-08-12T02:11:04;23.88;;;15.10;;
33690;SDS011;20026;50.058;18.428;2023-08-12T02:13:30;19.92;;;14.65;;
33690;SDS011;20026;50.058;18.428;2023-08-12T02:15:57;20.77;;;15.48;;
33690;SDS011;20026;50.058;18.428;2023-08-12T02:18:23;26.52;;;15.63;;
33690;SDS011;20026;50.058;18.428;2023-08-12T02:20:49;24.55;;;16.65;;
33690;SDS011;20026;50.058;18.428;2023-08-12T02:23:15;30.17;;;17.02;;
33690;SDS011;20026;50.058;18.428;2023-08-12T02:25:41;32.75;;;21.73;;
33690;SDS011;20026;50.058;18.428;2023-08-12T02:28:07;30.92;;;19.50;;
33690;SDS011;20026;50.058;18.428;2023-08-12T02:30:33;21.63;;;17.45;;
33690;SDS011;20026;50.058;18.428;2023-08-12T02:32:59;22.00;;;16.30;;
33690;SDS011;20026;50.058;18.428;2023-08-12T02:35:25;23.10;;;16.45;;
33690;SDS011;20026;50.058;18.428;2023-08-12T02:37:51;25.42;;;16.42;;
33690;SDS011;20026;50.058;18.428;2023-08-12T02:40:17;22.75;;;16.08;;
33690;SDS011;20026;50.058;18.428;2023-08-12T02:42:43;19.73;;;16.45;;
33690;SDS011;20026;50.058;18.428;2023-08-12T02:47:39;22.20;;;17.00;;
33690;SDS011;20026;50.058;18.428;2023-08-12T02:50:08;19.88;;;16.60;;
33690;SDS011;20026;50.058;18.428;2023-08-12T02:52:34;19.27;;;16.48;;
33690;SDS011;20026;50.058;18.428;2023-08-12T02:55:00;22.20;;;16.80;;
33690;SDS011;20026;50.058;18.428;2023-08-12T02:57:26;22.48;;;16.90;;
33690;SDS011;20026;50.058;18.428;2023-08-12T02:59:52;20.08;;;16.48;;
33690;SDS011;20026;50.058;18.428;2023-08-12T03:02:18;20.65;;;16.40;;
33690;SDS011;20026;50.058;18.428;2023-08-12T03:04:44;27.38;;;17.90;;
33690;SDS011;20026;50.058;18.428;2023-08-12T03:09:40;21.55;;;15.55;;
33690;SDS011;20026;50.058;18.428;2023-08-12T03:12:06;19.45;;;15.98;;
33690;SDS011;20026;50.058;18.428;2023-08-12T03:14:32;22.73;;;15.95;;
33690;SDS011;20026;50.058;18.428;2023-08-12T03:16:58;19.65;;;15.25;;
33690;SDS011;20026;50.058;18.428;2023-08-12T03:19:24;19.30;;;16.95;;
33690;SDS011;20026;50.058;18.428;2023-08-12T03:21:50;21.83;;;15.82;;
33690;SDS011;20026;50.058;18.428;2023-08-12T03:24:16;19.67;;;16.08;;
33690;SDS011;20026;50.058;18.428;2023-08-12T03:26:42;25.90;;;17.20;;
33690;SDS011;20026;50.058;18.428;2023-08-12T03:29:08;19.23;;;15.95;;
33690;SDS011;20026;50.058;18.428;2023-08-12T03:31:34;24.58;;;18.08;;
33690;SDS011;20026;50.058;18.428;2023-08-12T03:34:00;23.60;;;18.05;;
33690;SDS011;20026;50.058;18.428;2023-08-12T03:36:29;26.40;;;20.38;;
33690;SDS011;20026;50.058;18.428;2023-08-12T03:38:55;30.37;;;21.27;;
33690;SDS011;20026;50.058;18.428;2023-08-12T03:41:24;24.93;;;17.97;;
33690;SDS011;20026;50.058;18.428;2023-08-12T03:43:50;23.25;;;18.35;;
33690;SDS011;20026;50.058;18.428;2023-08-12T03:46:17;26.80;;;20.27;;
33690;SDS011;20026;50.058;18.428;2023-08-12T03:48:43;24.17;;;20.45;;
33690;SDS011;20026;50.058;18.428;2023-08-12T03:51:09;24.45;;;21.15;;
33690;SDS011;20026;50.058;18.428;2023-08-12T03:53:34;28.30;;;21.48;;
33690;SDS011;20026;50.058;18.428;2023-08-12T03:56:00;23.70;;;20.95;;
33690;SDS011;20026;50.058;18.428;2023-08-12T03:58:26;28.23;;;21.02;;
33690;SDS011;20026;50.058;18.428;2023-08-12T04:00:52;25.42;;;20.92;;
33690;SDS011;20026;50.058;18.428;2023-08-12T04:03:18;24.45;;;19.85;;
33690;SDS011;20026;50.058;18.428;2023-08-12T04:05:51;22.05;;;19.38;;
33690;SDS011;20026;50.058;18.428;2023-08-12T04:08:21;21.92;;;18.42;;
33690;SDS011;20026;50.058;18.428;2023-08-12T04:10:49;22.58;;;18.45;;
33690;SDS011;20026;50.058;18.428;2023-08-12T04:13:15;22.83;;;17.40;;
33690;SDS011;20026;50.058;18.428;2023-08-12T04:15:42;21.10;;;17.33;;
33690;SDS011;20026;50.058;18.428;2023-08-12T04:18:08;19.83;;;16.17;;
33690;SDS011;20026;50.058;18.428;2023-08-12T04:20:34;20.55;;;16.65;;
33690;SDS011;20026;50.058;18.428;2023-08-12T04:23:00;21.25;;;15.65;;
33690;SDS011;20026;50.058;18.428;2023-08-12T04:25:26;22.13;;;16.90;;
33690;SDS011;20026;50.058;18.428;2023-08-12T04:27:52;20.38;;;14.77;;
33690;SDS011;20026;50.058;18.428;2023-08-12T04:30:18;17.65;;;14.43;;
33690;SDS011;20026;50.058;18.428;2023-08-12T04:32:44;15.73;;;13.75;;
33690;SDS011;20026;50.058;18.428;2023-08-12T04:35:10;21.15;;;13.98;;
33690;SDS011;20026;50.058;18.428;2023-08-12T04:37:36;19.95;;;13.75;;
33690;SDS011;20026;50.058;18.428;2023-08-12T04:40:02;18.38;;;14.23;;
33690;SDS011;20026;50.058;18.428;2023-08-12T04:42:29;18.38;;;13.35;;
33690;SDS011;20026;50.058;18.428;2023-08-12T04:44:56;17.73;;;13.07;;
33690;SDS011;20026;50.058;18.428;2023-08-12T04:47:22;16.83;;;12.68;;
33690;SDS011;20026;50.058;18.428;2023-08-12T04:49:48;15.68;;;11.65;;
33690;SDS011;20026;50.058;18.428;2023-08-12T04:52:14;16.05;;;12.13;;
33690;SDS011;20026;50.058;18.428;2023-08-12T04:54:43;17.38;;;11.70;;
33690;SDS011;20026;50.058;18.428;2023-08-12T04:57:16;18.33;;;11.18;;
33690;SDS011;20026;50.058;18.428;2023-08-12T04:59:42;19.27;;;11.50;;
33690;SDS011;20026;50.058;18.428;2023-08-12T05:02:08;20.45;;;10.88;;
33690;SDS011;20026;50.058;18.428;2023-08-12T05:04:34;15.68;;;10.30;;
33690;SDS011;20026;50.058;18.428;2023-08-12T05:07:00;17.75;;;9.48;;
33690;SDS011;20026;50.058;18.428;2023-08-12T05:09:26;14.02;;;9.10;;
33690;SDS011;20026;50.058;18.428;2023-08-12T05:11:52;12.73;;;7.50;;
33690;SDS011;20026;50.058;18.428;2023-08-12T05:14:18;16.05;;;8.13;;
33690;SDS011;20026;50.058;18.428;2023-08-12T05:16:44;13.05;;;7.70;;
33690;SDS011;20026;50.058;18.428;2023-08-12T05:19:10;13.05;;;7.28;;
33690;SDS011;20026;50.058;18.428;2023-08-12T05:21:36;13.57;;;7.50;;
33690;SDS011;20026;50.058;18.428;2023-08-12T05:24:02;10.45;;;6.72;;
33690;SDS011;20026;50.058;18.428;2023-08-12T05:26:28;13.68;;;6.78;;
33690;SDS011;20026;50.058;18.428;2023-08-12T05:28:54;14.20;;;6.60;;
33690;SDS011;20026;50.058;18.428;2023-08-12T05:31:20;9.65;;;6.43;;
33690;SDS011;20026;50.058;18.428;2023-08-12T05:33:47;8.30;;;6.22;;
33690;SDS011;20026;50.058;18.428;2023-08-12T05:36:13;11.85;;;6.57;;
33690;SDS011;20026;50.058;18.428;2023-08-12T05:38:39;10.68;;;5.90;;
33690;SDS011;20026;50.058;18.428;2023-08-12T05:41:05;8.38;;;6.30;;
33690;SDS011;20026;50.058;18.428;2023-08-12T05:43:32;11.80;;;6.47;;
33690;SDS011;20026;50.058;18.428;2023-08-12T05:45:58;8.60;;;6.18;;
33690;SDS011;20026;50.058;18.428;2023-08-12T05:48:28;12.82;;;6.22;;
33690;SDS011;20026;50.058;18.428;2023-08-12T05:50:54;11.10;;;6.43;;
33690;SDS011;20026;50.058;18.428;2023-08-12T05:53:21;8.02;;;6.03;;
33690;SDS011;20026;50.058;18.428;2023-08-12T05:55:51;10.73;;;6.57;;
33690;SDS011;20026;50.058;18.428;2023-08-12T05:58:17;11.07;;;6.68;;
33690;SDS011;20026;50.058;18.428;2023-08-12T06:00:43;14.05;;;7.22;;
33690;SDS011;20026;50.058;18.428;2023-08-12T06:03:10;9.35;;;6.28;;
33690;SDS011;20026;50.058;18.428;2023-08-12T06:05:37;11.95;;;6.80;;
33690;SDS011;20026;50.058;18.428;2023-08-12T06:08:03;11.00;;;6.70;;
33690;SDS011;20026;50.058;18.428;2023-08-12T06:10:29;10.57;;;7.25;;
33690;SDS011;20026;50.058;18.428;2023-08-12T06:12:55;9.18;;;6.30;;
33690;SDS011;20026;50.058;18.428;2023-08-12T06:15:25;10.90;;;6.50;;
33690;SDS011;20026;50.058;18.428;2023-08-12T06:17:51;12.30;;;6.38;;
33690;SDS011;20026;50.058;18.428;2023-08-12T06:20:17;9.43;;;5.10;;
33690;SDS011;20026;50.058;18.428;2023-08-12T06:22:43;10.30;;;5.63;;
33690;SDS011;20026;50.058;18.428;2023-08-12T06:25:09;9.02;;;5.28;;
33690;SDS011;20026;50.058;18.428;2023-08-12T06:27:36;12.27;;;5.00;;
33690;SDS011;20026;50.058;18.428;2023-08-12T06:30:02;8.73;;;4.93;;
33690;SDS011;20026;50.058;18.428;2023-08-12T06:32:28;6.93;;;4.38;;
33690;SDS011;20026;50.058;18.428;2023-08-12T06:34:54;5.70;;;3.83;;
33690;SDS011;20026;50.058;18.428;2023-08-12T06:37:20;8.65;;;4.13;;
33690;SDS011;20026;50.058;18.428;2023-08-12T06:39:46;5.97;;;3.85;;
33690;SDS011;20026;50.058;18.428;2023-08-12T06:42:12;4.88;;;3.20;;
33690;SDS011;20026;50.058;18.428;2023-08-12T06:44:38;5.25;;;3.08;;
33690;SDS011;20026;50.058;18.428;2023-08-12T06:47:04;7.22;;;3.22;;
33690;SDS011;20026;50.058;18.428;2023-08-12T06:49:30;10.63;;;3.53;;
33690;SDS011;20026;50.058;18.428;2023-08-12T06:51:56;5.72;;;3.50;;
33690;SDS011;20026;50.058;18.428;2023-08-12T06:54:22;5.80;;;3.17;;
33690;SDS011;20026;50.058;18.428;2023-08-12T06:56:48;4.15;;;2.95;;
33690;SDS011;20026;50.058;18.428;2023-08-12T06:59:14;8.57;;;2.80;;
33690;SDS011;20026;50.058;18.428;2023-08-12T07:01:40;7.30;;;3.25;;
33690;SDS011;20026;50.058;18.428;2023-08-12T07:04:06;7.90;;;3.15;;
33690;SDS011;20026;50.058;18.428;2023-08-12T07:06:32;9.05;;;3.13;;
33690;SDS011;20026;50.058;18.428;2023-08-12T07:08:58;4.20;;;2.80;;
33690;SDS011;20026;50.058;18.428;2023-08-12T07:11:24;8.90;;;3.00;;
33690;SDS011;20026;50.058;18.428;2023-08-12T07:13:50;6.82;;;3.60;;
33690;SDS011;20026;50.058;18.428;2023-08-12T07:16:16;5.38;;;3.05;;
33690;SDS011;20026;50.058;18.428;2023-08-12T07:18:42;4.55;;;3.22;;
33690;SDS011;20026;50.058;18.428;2023-08-12T07:21:08;4.22;;;3.08;;
33690;SDS011;20026;50.058;18.428;2023-08-12T07:23:34;5.68;;;3.15;;
33690;SDS011;20026;50.058;18.428;2023-08-12T07:26:00;3.63;;;2.97;;
33690;SDS011;20026;50.058;18.428;2023-08-12T07:28:26;4.90;;;2.90;;
33690;SDS011;20026;50.058;18.428;2023-08-12T07:30:52;4.88;;;3.13;;
33690;SDS011;20026;50.058;18.428;2023-08-12T07:33:19;8.88;;;3.40;;
33690;SDS011;20026;50.058;18.428;2023-08-12T07:35:46;4.07;;;2.83;;
33690;SDS011;20026;50.058;18.428;2023-08-12T07:38:12;6.95;;;3.20;;
33690;SDS011;20026;50.058;18.428;2023-08-12T07:40:38;3.20;;;2.70;;
33690;SDS011;20026;50.058;18.428;2023-08-12T07:43:04;4.63;;;2.83;;
33690;SDS011;20026;50.058;18.428;2023-08-12T07:45:31;14.27;;;3.60;;
33690;SDS011;20026;50.058;18.428;2023-08-12T07:47:57;5.75;;;2.95;;
33690;SDS011;20026;50.058;18.428;2023-08-12T07:50:23;3.85;;;3.15;;
33690;SDS011;20026;50.058;18.428;2023-08-12T07:52:49;6.95;;;3.15;;
33690;SDS011;20026;50.058;18.428;2023-08-12T07:55:16;6.22;;;2.90;;
33690;SDS011;20026;50.058;18.428;2023-08-12T07:57:44;9.73;;;3.25;;
33690;SDS011;20026;50.058;18.428;2023-08-12T08:00:10;4.43;;;3.28;;
33690;SDS011;20026;50.058;18.428;2023-08-12T08:02:37;12.10;;;2.90;;
33690;SDS011;20026;50.058;18.428;2023-08-12T08:05:03;5.65;;;3.65;;
33690;SDS011;20026;50.058;18.428;2023-08-12T08:07:29;5.95;;;3.10;;
33690;SDS011;20026;50.058;18.428;2023-08-12T08:09:55;3.78;;;3.17;;
33690;SDS011;20026;50.058;18.428;2023-08-12T08:12:21;5.30;;;3.20;;
33690;SDS011;20026;50.058;18.428;2023-08-12T08:14:47;3.50;;;3.00;;
33690;SDS011;20026;50.058;18.428;2023-08-12T08:17:13;7.00;;;3.10;;
33690;SDS011;20026;50.058;18.428;2023-08-12T08:19:39;4.88;;;2.80;;
33690;SDS011;20026;50.058;18.428;2023-08-12T08:22:05;4.50;;;3.05;;
33690;SDS011;20026;50.058;18.428;2023-08-12T08:24:31;4.18;;;2.95;;
33690;SDS011;20026;50.058;18.428;2023-08-12T08:26:57;4.50;;;3.30;;
33690;SDS011;20026;50.058;18.428;2023-08-12T08:29:23;8.00;;;3.20;;
33690;SDS011;20026;50.058;18.428;2023-08-12T08:31:49;4.75;;;4.05;;
33690;SDS011;20026;50.058;18.428;2023-08-12T08:34:15;7.50;;;3.17;;
33690;SDS011;20026;50.058;18.428;2023-08-12T08:36:41;5.80;;;3.15;;
33690;SDS011;20026;50.058;18.428;2023-08-12T08:39:08;8.35;;;3.25;;
33690;SDS011;20026;50.058;18.428;2023-08-12T08:41:36;4.43;;;2.90;;
33690;SDS011;20026;50.058;18.428;2023-08-12T08:44:03;6.28;;;2.58;;
33690;SDS011;20026;50.058;18.428;2023-08-12T08:46:32;5.75;;;3.03;;
33690;SDS011;20026;50.058;18.428;2023-08-12T08:48:58;6.10;;;2.83;;
33690;SDS011;20026;50.058;18.428;2023-08-12T08:51:25;4.05;;;2.90;;
33690;SDS011;20026;50.058;18.428;2023-08-12T08:53:52;6.47;;;2.83;;
33690;SDS011;20026;50.058;18.428;2023-08-12T08:56:19;11.48;;;3.15;;
33690;SDS011;20026;50.058;18.428;2023-08-12T08:58:45;4.85;;;2.83;;
33690;SDS011;20026;50.058;18.428;2023-08-12T09:01:11;3.83;;;2.42;;
33690;SDS011;20026;50.058;18.428;2023-08-12T09:03:38;8.63;;;2.33;;
33690;SDS011;20026;50.058;18.428;2023-08-12T09:06:04;3.17;;;2.50;;
33690;SDS011;20026;50.058;18.428;2023-08-12T09:08:33;3.03;;;2.22;;
33690;SDS011;20026;50.058;18.428;2023-08-12T09:11:00;5.60;;;2.50;;
33690;SDS011;20026;50.058;18.428;2023-08-12T09:13:27;4.65;;;3.00;;
33690;SDS011;20026;50.058;18.428;2023-08-12T09:15:53;8.07;;;4.15;;
33690;SDS011;20026;50.058;18.428;2023-08-12T09:18:20;4.55;;;3.10;;
33690;SDS011;20026;50.058;18.428;2023-08-12T09:20:49;9.18;;;4.30;;
33690;SDS011;20026;50.058;18.428;2023-08-12T09:23:15;3.60;;;3.17;;
33690;SDS011;20026;50.058;18.428;2023-08-12T09:25:43;4.53;;;2.72;;
33690;SDS011;20026;50.058;18.428;2023-08-12T09:28:09;5.95;;;2.65;;
33690;SDS011;20026;50.058;18.428;2023-08-12T09:30:35;6.35;;;2.85;;
33690;SDS011;20026;50.058;18.428;2023-08-12T09:33:02;6.18;;;2.90;;
33690;SDS011;20026;50.058;18.428;2023-08-12T09:35:38;7.22;;;3.90;;
33690;SDS011;20026;50.058;18.428;2023-08-12T09:38:06;5.22;;;4.30;;
33690;SDS011;20026;50.058;18.428;2023-08-12T09:40:33;4.10;;;3.70;;
33690;SDS011;20026;50.058;18.428;2023-08-12T09:42:59;8.23;;;3.25;;
33690;SDS011;20026;50.058;18.428;2023-08-12T09:45:25;7.93;;;3.10;;
33690;SDS011;20026;50.058;18.428;2023-08-12T09:47:52;4.03;;;3.10;;
33690;SDS011;20026;50.058;18.428;2023-08-12T09:50:20;4.85;;;2.30;;
33690;SDS011;20026;50.058;18.428;2023-08-12T09:52:46;2.70;;;2.50;;
33690;SDS011;20026;50.058;18.428;2023-08-12T09:55:12;5.78;;;3.47;;
33690;SDS011;20026;50.058;18.428;2023-08-12T09:57:41;2.35;;;2.15;;
33690;SDS011;20026;50.058;18.428;2023-08-12T10:00:09;6.78;;;4.60;;
33690;SDS011;20026;50.058;18.428;2023-08-12T10:02:42;4.85;;;2.60;;
33690;SDS011;20026;50.058;18.428;2023-08-12T10:05:09;6.13;;;2.65;;
33690;SDS011;20026;50.058;18.428;2023-08-12T10:07:37;7.32;;;2.95;;
33690;SDS011;20026;50.058;18.428;2023-08-12T10:10:03;5.38;;;2.47;;
33690;SDS011;20026;50.058;18.428;2023-08-12T10:12:30;4.35;;;2.35;;
33690;SDS011;20026;50.058;18.428;2023-08-12T10:14:56;4.57;;;2.50;;
33690;SDS011;20026;50.058;18.428;2023-08-12T10:17:22;3.90;;;1.70;;
33690;SDS011;20026;50.058;18.428;2023-08-12T10:19:53;2.75;;;1.90;;
33690;SDS011;20026;50.058;18.428;2023-08-12T10:22:20;6.68;;;6.00;;
33690;SDS011;20026;50.058;18.428;2023-08-12T10:24:47;1.85;;;1.63;;
33690;SDS011;20026;50.058;18.428;2023-08-12T10:27:13;11.93;;;2.33;;
33690;SDS011;20026;50.058;18.428;2023-08-12T10:29:42;2.80;;;2.60;;
33690;SDS011;20026;50.058;18.428;2023-08-12T10:32:08;3.05;;;2.63;;
33690;SDS011;20026;50.058;18.428;2023-08-12T10:34:34;2.00;;;1.85;;
33690;SDS011;20026;50.058;18.428;2023-08-12T10:37:01;3.63;;;1.50;;
33690;SDS011;20026;50.058;18.428;2023-08-12T10:39:27;3.33;;;1.60;;
33690;SDS011;20026;50.058;18.428;2023-08-12T10:41:54;2.42;;;1.40;;
33690;SDS011;20026;50.058;18.428;2023-08-12T10:44:21;2.90;;;1.20;;
33690;SDS011;20026;50.058;18.428;2023-08-12T10:46:51;3.00;;;1.75;;
33690;SDS011;20026;50.058;18.428;2023-08-12T10:49:21;2.30;;;2.10;;
33690;SDS011;20026;50.058;18.428;2023-08-12T10:54:14;2.47;;;1.73;;
33690;SDS011;20026;50.058;18.428;2023-08-12T11:02:28;3.40;;;1.50;;
33690;SDS011;20026;50.058;18.428;2023-08-12T11:05:00;2.72;;;2.10;;
33690;SDS011;20026;50.058;18.428;2023-08-12T11:10:17;1.58;;;1.48;;
33690;SDS011;20026;50.058;18.428;2023-08-12T11:12:48;1.50;;;1.40;;
33690;SDS011;20026;50.058;18.428;2023-08-12T11:15:14;2.45;;;2.17;;
33690;SDS011;20026;50.058;18.428;2023-08-12T11:17:40;4.13;;;2.88;;
33690;SDS011;20026;50.058;18.428;2023-08-12T11:20:08;2.55;;;2.35;;
33690;SDS011;20026;50.058;18.428;2023-08-12T11:22:38;1.92;;;1.50;;
33690;SDS011;20026;50.058;18.428;2023-08-12T11:25:06;2.22;;;1.70;;
33690;SDS011;20026;50.058;18.428;2023-08-12T11:27:51;2.28;;;2.00;;
33690;SDS011;20026;50.058;18.428;2023-08-12T11:30:18;4.07;;;1.85;;
33690;SDS011;20026;50.058;18.428;2023-08-12T11:32:44;3.20;;;2.63;;
33690;SDS011;20026;50.058;18.428;2023-08-12T11:35:11;5.47;;;1.48;;
33690;SDS011;20026;50.058;18.428;2023-08-12T11:37:38;4.28;;;1.92;;
33690;SDS011;20026;50.058;18.428;2023-08-12T11:40:05;2.92;;;2.20;;
33690;SDS011;20026;50.058;18.428;2023-08-12T11:42:31;3.13;;;1.70;;
33690;SDS011;20026;50.058;18.428;2023-08-12T11:44:57;1.92;;;1.50;;
33690;SDS011;20026;50.058;18.428;2023-08-12T11:47:23;3.90;;;1.40;;
33690;SDS011;20026;50.058;18.428;2023-08-12T11:49:51;7.93;;;1.38;;
33690;SDS011;20026;50.058;18.428;2023-08-12T11:52:18;2.00;;;1.20;;
33690;SDS011;20026;50.058;18.428;2023-08-12T11:54:44;1.75;;;1.20;;
33690;SDS011;20026;50.058;18.428;2023-08-12T11:57:10;2.67;;;1.55;;
33690;SDS011;20026;50.058;18.428;2023-08-12T11:59:37;1.67;;;1.25;;
33690;SDS011;20026;50.058;18.428;2023-08-12T12:02:03;1.15;;;1.02;;
33690;SDS011;20026;50.058;18.428;2023-08-12T12:04:30;4.65;;;1.90;;
33690;SDS011;20026;50.058;18.428;2023-08-12T12:06:56;1.30;;;1.20;;
33690;SDS011;20026;50.058;18.428;2023-08-12T12:09:22;2.28;;;1.38;;
33690;SDS011;20026;50.058;18.428;2023-08-12T12:11:51;1.75;;;1.30;;
33690;SDS011;20026;50.058;18.428;2023-08-12T12:14:18;5.38;;;1.17;;
33690;SDS011;20026;50.058;18.428;2023-08-12T12:19:29;1.35;;;1.23;;
33690;SDS011;20026;50.058;18.428;2023-08-12T12:21:55;3.10;;;1.50;;
33690;SDS011;20026;50.058;18.428;2023-08-12T12:24:21;2.20;;;1.30;;
33690;SDS011;20026;50.058;18.428;2023-08-12T12:26:47;5.50;;;1.90;;
33690;SDS011;20026;50.058;18.428;2023-08-12T12:29:13;3.10;;;2.60;;
33690;SDS011;20026;50.058;18.428;2023-08-12T12:31:39;1.90;;;1.80;;
33690;SDS011;20026;50.058;18.428;2023-08-12T12:34:06;1.55;;;1.45;;
33690;SDS011;20026;50.058;18.428;2023-08-12T12:36:35;3.70;;;2.17;;
33690;SDS011;20026;50.058;18.428;2023-08-12T12:39:05;2.08;;;1.73;;
33690;SDS011;20026;50.058;18.428;2023-08-12T12:41:31;5.03;;;1.88;;
33690;SDS011;20026;50.058;18.428;2023-08-12T12:43:59;2.38;;;1.42;;
33690;SDS011;20026;50.058;18.428;2023-08-12T12:46:25;3.20;;;2.70;;
33690;SDS011;20026;50.058;18.428;2023-08-12T12:48:51;4.95;;;1.75;;
33690;SDS011;20026;50.058;18.428;2023-08-12T12:51:16;4.38;;;2.00;;
33690;SDS011;20026;50.058;18.428;2023-08-12T12:53:42;6.38;;;2.05;;
33690;SDS011;20026;50.058;18.428;2023-08-12T12:56:09;3.90;;;3.05;;
33690;SDS011;20026;50.058;18.428;2023-08-12T12:58:35;4.18;;;2.85;;
33690;SDS011;20026;50.058;18.428;2023-08-12T13:01:02;5.50;;;1.50;;
33690;SDS011;20026;50.058;18.428;2023-08-12T13:03:29;3.70;;;2.28;;
33690;SDS011;20026;50.058;18.428;2023-08-12T13:05:55;10.13;;;7.35;;
33690;SDS011;20026;50.058;18.428;2023-08-12T13:08:21;3.72;;;1.70;;
33690;SDS011;20026;50.058;18.428;2023-08-12T13:10:47;3.22;;;2.40;;
33690;SDS011;20026;50.058;18.428;2023-08-12T13:13:13;3.30;;;1.40;;
33690;SDS011;20026;50.058;18.428;2023-08-12T13:15:43;3.25;;;1.23;;
33690;SDS011;20026;50.058;18.428;2023-08-12T13:18:09;2.50;;;1.70;;
33690;SDS011;20026;50.058;18.428;2023-08-12T13:20:36;6.80;;;1.58;;
33690;SDS011;20026;50.058;18.428;2023-08-12T13:23:02;5.25;;;1.38;;
33690;SDS011;20026;50.058;18.428;2023-08-12T13:25:29;1.80;;;1.60;;
33690;SDS011;20026;50.058;18.428;2023-08-12T13:27:56;4.15;;;1.50;;
33690;SDS011;20026;50.058;18.428;2023-08-12T13:30:22;1.73;;;1.40;;
33690;SDS011;20026;50.058;18.428;2023-08-12T13:32:48;5.88;;;1.42;;
33690;SDS011;20026;50.058;18.428;2023-08-12T13:35:14;1.80;;;1.50;;
33690;SDS011;20026;50.058;18.428;2023-08-12T13:37:40;4.32;;;1.45;;
33690;SDS011;20026;50.058;18.428;2023-08-12T13:40:07;2.10;;;1.77;;
33690;SDS011;20026;50.058;18.428;2023-08-12T13:42:34;3.03;;;1.85;;
33690;SDS011;20026;50.058;18.428;2023-08-12T13:45:00;2.00;;;1.73;;
33690;SDS011;20026;50.058;18.428;2023-08-12T13:47:26;4.00;;;1.30;;
33690;SDS011;20026;50.058;18.428;2023-08-12T13:49:52;2.50;;;1.75;;
33690;SDS011;20026;50.058;18.428;2023-08-12T13:52:19;2.40;;;1.45;;
33690;SDS011;20026;50.058;18.428;2023-08-12T13:54:45;3.42;;;1.77;;
33690;SDS011;20026;50.058;18.428;2023-08-12T13:57:11;2.90;;;1.70;;
33690;SDS011;20026;50.058;18.428;2023-08-12T13:59:37;4.43;;;2.10;;
33690;SDS011;20026;50.058;18.428;2023-08-12T14:02:05;4.72;;;2.38;;
33690;SDS011;20026;50.058;18.428;2023-08-12T14:04:31;3.53;;;1.63;;
33690;SDS011;20026;50.058;18.428;2023-08-12T14:06:58;4.75;;;2.10;;
33690;SDS011;20026;50.058;18.428;2023-08-12T14:09:24;4.22;;;2.10;;
33690;SDS011;20026;50.058;18.428;2023-08-12T14:11:50;1.63;;;1.52;;
33690;SDS011;20026;50.058;18.428;2023-08-12T14:14:16;5.65;;;1.77;;
33690;SDS011;20026;50.058;18.428;2023-08-12T14:16:42;1.60;;;1.50;;
33690;SDS011;20026;50.058;18.428;2023-08-12T14:19:08;2.58;;;1.67;;
33690;SDS011;20026;50.058;18.428;2023-08-12T14:21:34;4.07;;;1.70;;
33690;SDS011;20026;50.058;18.428;2023-08-12T14:24:00;4.68;;;1.67;;
33690;SDS011;20026;50.058;18.428;2023-08-12T14:26:26;2.83;;;1.45;;
33690;SDS011;20026;50.058;18.428;2023-08-12T14:28:52;2.85;;;1.70;;
33690;SDS011;20026;50.058;18.428;2023-08-12T14:31:18;2.70;;;1.77;;
33690;SDS011;20026;50.058;18.428;2023-08-12T14:33:44;4.10;;;1.58;;
33690;SDS011;20026;50.058;18.428;2023-08-12T14:36:10;3.55;;;1.70;;
33690;SDS011;20026;50.058;18.428;2023-08-12T14:38:36;5.60;;;1.80;;
33690;SDS011;20026;50.058;18.428;2023-08-12T14:41:02;2.65;;;2.03;;
33690;SDS011;20026;50.058;18.428;2023-08-12T14:43:28;6.32;;;1.20;;
33690;SDS011;20026;50.058;18.428;2023-08-12T14:45:53;2.65;;;1.50;;